sensor_id;sensor_type;location;lat;lon;timestamp;P1;durP1;ratioP1;P2;durP2;ratioP2
26530;SDS011;14201;43.188;24.160;2023-09-30T04:22:35;9.07;;;4.60;;
26530;SDS011;14201;43.188;24.160;2023-09-30T04:25:01;10.02;;;6.07;;
26530;SDS011;14201;43.188;24.160;2023-09-30T04:27:32;9.20;;;6.00;;
26530;SDS011;14201;43.188;24.160;2023-09-30T04:29:58;10.50;;;6.57;;
26530;SDS011;14201;43.188;24.160;2023-09-30T04:32:23;10.80;;;5.88;;
26530;SDS011;14201;43.188;24.160;2023-09-30T04:34:50;11.93;;;5.68;;
26530;SDS011;14201;43.188;24.160;2023-09-30T04:37:16;10.60;;;5.63;;
26530;SDS011;14201;43.188;24.160;2023-09-30T04:39:42;9.27;;;5.80;;
26530;SDS011;14201;43.188;24.160;2023-09-30T04:42:08;15.60;;;6.20;;
26530;SDS011;14201;43.188;24.160;2023-09-30T04:44:36;15.93;;;5.90;;
26530;SDS011;14201;43.188;24.160;2023-09-30T04:47:03;9.20;;;5.15;;
26530;SDS011;14201;43.188;24.160;2023-09-30T04:49:29;13.18;;;6.20;;
26530;SDS011;14201;43.188;24.160;2023-09-30T04:51:55;13.20;;;6.00;;
26530;SDS011;14201;43.188;24.160;2023-09-30T04:54:21;11.60;;;5.90;;
26530;SDS011;14201;43.188;24.160;2023-09-30T04:56:47;11.63;;;6.47;;
26530;SDS011;14201;43.188;24.160;2023-09-30T04:59:12;10.70;;;6.28;;
26530;SDS011;14201;43.188;24.160;2023-09-30T05:01:39;9.32;;;5.72;;
26530;SDS011;14201;43.188;24.160;2023-09-30T05:04:04;9.15;;;6.10;;
26530;SDS011;14201;43.188;24.160;2023-09-30T05:06:30;9.70;;;6.40;;
26530;SDS011;14201;43.188;24.160;2023-09-30T05:08:57;12.80;;;6.47;;
26530;SDS011;14201;43.188;24.160;2023-09-30T05:11:25;16.00;;;6.57;;
26530;SDS011;14201;43.188;24.160;2023-09-30T05:13:52;34.95;;;22.63;;
26530;SDS011;14201;43.188;24.160;2023-09-30T05:16:18;24.58;;;14.48;;
26530;SDS011;14201;43.188;24.160;2023-09-30T05:18:43;43.63;;;29.98;;
26530;SDS011;14201;43.188;24.160;2023-09-30T05:21:09;12.77;;;7.40;;
26530;SDS011;14201;43.188;24.160;2023-09-30T05:23:35;10.60;;;6.20;;
26530;SDS011;14201;43.188;24.160;2023-09-30T05:26:02;16.67;;;7.47;;
26530;SDS011;14201;43.188;24.160;2023-09-30T05:28:27;16.05;;;9.68;;
26530;SDS011;14201;43.188;24.160;2023-09-30T05:30:53;20.13;;;10.35;;
26530;SDS011;14201;43.188;24.160;2023-09-30T05:33:19;19.13;;;10.50;;
26530;SDS011;14201;43.188;24.160;2023-09-30T05:35:45;19.35;;;10.40;;
26530;SDS011;14201;43.188;24.160;2023-09-30T06:15:14;12.73;;;5.78;;
26530;SDS011;14201;43.188;24.160;2023-09-30T06:17:40;11.75;;;4.93;;
26530;SDS011;14201;43.188;24.160;2023-09-30T06:20:07;10.25;;;5.15;;
26530;SDS011;14201;43.188;24.160;2023-09-30T06:22:34;11.23;;;5.68;;
26530;SDS011;14201;43.188;24.160;2023-09-30T06:25:00;20.77;;;5.25;;
26530;SDS011;14201;43.188;24.160;2023-09-30T06:27:25;8.77;;;5.07;;
26530;SDS011;14201;43.188;24.160;2023-09-30T06:29:51;7.63;;;4.57;;
26530;SDS011;14201;43.188;24.160;2023-09-30T06:32:16;9.13;;;4.60;;
26530;SDS011;14201;43.188;24.160;2023-09-30T06:34:42;9.98;;;4.97;;
26530;SDS011;14201;43.188;24.160;2023-09-30T06:37:08;77.38;;;7.55;;
26530;SDS011;14201;43.188;24.160;2023-09-30T06:39:33;8.98;;;4.32;;
26530;SDS011;14201;43.188;24.160;2023-09-30T06:41:59;15.32;;;4.90;;
26530;SDS011;14201;43.188;24.160;2023-09-30T06:44:25;10.38;;;4.65;;
26530;SDS011;14201;43.188;24.160;2023-09-30T06:46:50;12.73;;;4.68;;
26530;SDS011;14201;43.188;24.160;2023-09-30T06:49:16;9.73;;;4.75;;
26530;SDS011;14201;43.188;24.160;2023-09-30T06:51:42;7.63;;;4.35;;
26530;SDS011;14201;43.188;24.160;2023-09-30T06:54:08;11.40;;;4.60;;
26530;SDS011;14201;43.188;24.160;2023-09-30T06:56:34;12.25;;;4.32;;
26530;SDS011;14201;43.188;24.160;2023-09-30T06:58:59;13.07;;;4.55;;
26530;SDS011;14201;43.188;24.160;2023-09-30T07:01:26;12.27;;;4.47;;
26530;SDS011;14201;43.188;24.160;2023-09-30T07:03:53;11.25;;;4.72;;
26530;SDS011;14201;43.188;24.160;2023-09-30T07:06:22;14.50;;;4.60;;
26530;SDS011;14201;43.188;24.160;2023-09-30T07:08:49;12.50;;;4.80;;
26530;SDS011;14201;43.188;24.160;2023-09-30T07:13:40;17.05;;;5.28;;
26530;SDS011;14201;43.188;24.160;2023-09-30T07:16:05;15.48;;;5.72;;
26530;SDS011;14201;43.188;24.160;2023-09-30T07:18:31;10.55;;;5.07;;
26530;SDS011;14201;43.188;24.160;2023-09-30T07:20:56;13.00;;;6.47;;
26530;SDS011;14201;43.188;24.160;2023-09-30T07:23:22;14.88;;;6.43;;
26530;SDS011;14201;43.188;24.160;2023-09-30T07:25:48;17.75;;;6.45;;
26530;SDS011;14201;43.188;24.160;2023-09-30T07:28:13;22.95;;;13.35;;
26530;SDS011;14201;43.188;24.160;2023-09-30T07:30:39;17.33;;;5.10;;
26530;SDS011;14201;43.188;24.160;2023-09-30T07:33:05;36.22;;;26.75;;
26530;SDS011;14201;43.188;24.160;2023-09-30T07:35:32;25.65;;;14.85;;
26530;SDS011;14201;43.188;24.160;2023-09-30T07:37:59;16.08;;;5.90;;
26530;SDS011;14201;43.188;24.160;2023-09-30T07:40:24;12.10;;;5.32;;
26530;SDS011;14201;43.188;24.160;2023-09-30T07:42:50;50.53;;;26.08;;
26530;SDS011;14201;43.188;24.160;2023-09-30T07:45:16;14.65;;;5.13;;
26530;SDS011;14201;43.188;24.160;2023-09-30T07:47:45;40.95;;;24.63;;
26530;SDS011;14201;43.188;24.160;2023-09-30T07:50:14;97.43;;;67.68;;
26530;SDS011;14201;43.188;24.160;2023-09-30T07:52:40;35.95;;;18.02;;
26530;SDS011;14201;43.188;24.160;2023-09-30T07:55:07;10.05;;;5.00;;
26530;SDS011;14201;43.188;24.160;2023-09-30T07:57:33;19.83;;;8.85;;
26530;SDS011;14201;43.188;24.160;2023-09-30T07:59:59;21.55;;;9.00;;
26530;SDS011;14201;43.188;24.160;2023-09-30T08:02:24;17.90;;;5.38;;
26530;SDS011;14201;43.188;24.160;2023-09-30T08:04:53;15.40;;;8.45;;
26530;SDS011;14201;43.188;24.160;2023-09-30T08:07:18;22.38;;;6.15;;
26530;SDS011;14201;43.188;24.160;2023-09-30T08:09:44;15.05;;;7.45;;
26530;SDS011;14201;43.188;24.160;2023-09-30T08:12:09;15.32;;;5.40;;
26530;SDS011;14201;43.188;24.160;2023-09-30T08:14:35;10.35;;;4.78;;
26530;SDS011;14201;43.188;24.160;2023-09-30T08:17:01;11.30;;;4.93;;
26530;SDS011;14201;43.188;24.160;2023-09-30T08:19:27;13.50;;;5.20;;
26530;SDS011;14201;43.188;24.160;2023-09-30T08:21:53;10.70;;;4.60;;
26530;SDS011;14201;43.188;24.160;2023-09-30T08:24:18;15.90;;;4.45;;
26530;SDS011;14201;43.188;24.160;2023-09-30T08:26:44;13.45;;;4.63;;
26530;SDS011;14201;43.188;24.160;2023-09-30T08:29:09;16.58;;;5.22;;
26530;SDS011;14201;43.188;24.160;2023-09-30T08:31:35;24.70;;;5.40;;
26530;SDS011;14201;43.188;24.160;2023-09-30T08:34:01;10.18;;;5.00;;
26530;SDS011;14201;43.188;24.160;2023-09-30T08:36:29;15.35;;;4.90;;
26530;SDS011;14201;43.188;24.160;2023-09-30T08:38:55;14.75;;;5.22;;
26530;SDS011;14201;43.188;24.160;2023-09-30T08:41:33;52.85;;;22.27;;
26530;SDS011;14201;43.188;24.160;2023-09-30T08:43:59;25.27;;;7.57;;
26530;SDS011;14201;43.188;24.160;2023-09-30T08:46:28;49.70;;;29.83;;
26530;SDS011;14201;43.188;24.160;2023-09-30T08:48:56;46.00;;;30.95;;
26530;SDS011;14201;43.188;24.160;2023-09-30T08:51:27;71.20;;;50.40;;
26530;SDS011;14201;43.188;24.160;2023-09-30T10:18:19;77.80;;;49.25;;
26530;SDS011;14201;43.188;24.160;2023-09-30T10:20:45;95.32;;;64.57;;
26530;SDS011;14201;43.188;24.160;2023-09-30T10:23:26;105.53;;;75.65;;
26530;SDS011;14201;43.188;24.160;2023-09-30T10:28:46;22.73;;;7.93;;
26530;SDS011;14201;43.188;24.160;2023-09-30T10:36:28;300.08;;;18.20;;
26530;SDS011;14201;43.188;24.160;2023-09-30T10:38:55;62.30;;;29.35;;
26530;SDS011;14201;43.188;24.160;2023-09-30T10:49:56;91.93;;;12.50;;
26530;SDS011;14201;43.188;24.160;2023-09-30T10:52:22;41.40;;;14.77;;
26530;SDS011;14201;43.188;24.160;2023-09-30T10:54:48;20.55;;;8.63;;
26530;SDS011;14201;43.188;24.160;2023-09-30T10:57:16;45.30;;;21.23;;
26530;SDS011;14201;43.188;24.160;2023-09-30T11:00:11;44.85;;;35.47;;
26530;SDS011;14201;43.188;24.160;2023-09-30T11:02:49;111.45;;;89.25;;
26530;SDS011;14201;43.188;24.160;2023-09-30T11:05:18;38.20;;;8.60;;
26530;SDS011;14201;43.188;24.160;2023-09-30T11:07:48;33.65;;;6.90;;
26530;SDS011;14201;43.188;24.160;2023-09-30T11:10:18;76.55;;;62.47;;
26530;SDS011;14201;43.188;24.160;2023-09-30T11:12:54;25.20;;;11.93;;
26530;SDS011;14201;43.188;24.160;2023-09-30T11:15:23;54.55;;;41.13;;
26530;SDS011;14201;43.188;24.160;2023-09-30T11:17:52;42.33;;;10.70;;
26530;SDS011;14201;43.188;24.160;2023-09-30T11:20:18;25.13;;;13.90;;
26530;SDS011;14201;43.188;24.160;2023-09-30T11:22:44;21.42;;;13.45;;
26530;SDS011;14201;43.188;24.160;2023-09-30T11:25:20;47.22;;;37.53;;
26530;SDS011;14201;43.188;24.160;2023-09-30T11:27:46;17.38;;;8.60;;
26530;SDS011;14201;43.188;24.160;2023-09-30T11:30:13;14.55;;;4.88;;
26530;SDS011;14201;43.188;24.160;2023-09-30T11:32:47;115.85;;;81.95;;
26530;SDS011;14201;43.188;24.160;2023-09-30T11:35:25;44.00;;;19.05;;
26530;SDS011;14201;43.188;24.160;2023-09-30T11:37:50;51.45;;;30.70;;
26530;SDS011;14201;43.188;24.160;2023-09-30T11:40:17;98.25;;;34.28;;
26530;SDS011;14201;43.188;24.160;2023-09-30T11:43:06;65.75;;;21.00;;
26530;SDS011;14201;43.188;24.160;2023-09-30T11:45:33;57.90;;;45.85;;
26530;SDS011;14201;43.188;24.160;2023-09-30T11:47:59;120.32;;;79.68;;
26530;SDS011;14201;43.188;24.160;2023-09-30T11:50:24;122.07;;;91.03;;
26530;SDS011;14201;43.188;24.160;2023-09-30T11:52:50;43.47;;;23.13;;
26530;SDS011;14201;43.188;24.160;2023-09-30T11:55:15;20.17;;;7.07;;
26530;SDS011;14201;43.188;24.160;2023-09-30T11:57:41;42.47;;;17.60;;
26530;SDS011;14201;43.188;24.160;2023-09-30T12:00:07;40.20;;;18.45;;
26530;SDS011;14201;43.188;24.160;2023-09-30T12:02:38;28.70;;;17.48;;
26530;SDS011;14201;43.188;24.160;2023-09-30T12:05:05;59.83;;;38.78;;
26530;SDS011;14201;43.188;24.160;2023-09-30T12:07:36;29.65;;;20.88;;
26530;SDS011;14201;43.188;24.160;2023-09-30T12:10:06;55.70;;;30.10;;
26530;SDS011;14201;43.188;24.160;2023-09-30T12:12:32;39.10;;;14.50;;
26530;SDS011;14201;43.188;24.160;2023-09-30T12:14:57;29.52;;;11.55;;
26530;SDS011;14201;43.188;24.160;2023-09-30T12:17:23;64.45;;;44.25;;
26530;SDS011;14201;43.188;24.160;2023-09-30T12:19:48;50.03;;;17.52;;
26530;SDS011;14201;43.188;24.160;2023-09-30T12:22:15;54.05;;;35.72;;
26530;SDS011;14201;43.188;24.160;2023-09-30T12:24:40;118.78;;;95.20;;
26530;SDS011;14201;43.188;24.160;2023-09-30T12:27:06;33.97;;;24.95;;
26530;SDS011;14201;43.188;24.160;2023-09-30T12:29:31;19.27;;;6.78;;
26530;SDS011;14201;43.188;24.160;2023-09-30T12:31:57;39.70;;;27.42;;
26530;SDS011;14201;43.188;24.160;2023-09-30T12:34:23;58.85;;;17.42;;
26530;SDS011;14201;43.188;24.160;2023-09-30T12:36:50;24.42;;;13.85;;
26530;SDS011;14201;43.188;24.160;2023-09-30T12:39:16;79.78;;;24.70;;
26530;SDS011;14201;43.188;24.160;2023-09-30T12:41:49;63.72;;;46.58;;
26530;SDS011;14201;43.188;24.160;2023-09-30T12:44:15;88.40;;;64.25;;
26530;SDS011;14201;43.188;24.160;2023-09-30T12:46:42;110.28;;;83.32;;
26530;SDS011;14201;43.188;24.160;2023-09-30T12:49:08;54.97;;;22.55;;
26530;SDS011;14201;43.188;24.160;2023-09-30T12:51:34;45.13;;;35.05;;
26530;SDS011;14201;43.188;24.160;2023-09-30T12:54:01;48.60;;;20.95;;
26530;SDS011;14201;43.188;24.160;2023-09-30T12:56:26;98.50;;;74.75;;
26530;SDS011;14201;43.188;24.160;2023-09-30T12:58:54;20.85;;;14.20;;
26530;SDS011;14201;43.188;24.160;2023-09-30T13:01:20;13.20;;;4.90;;
26530;SDS011;14201;43.188;24.160;2023-09-30T13:03:47;11.88;;;5.13;;
26530;SDS011;14201;43.188;24.160;2023-09-30T13:06:14;21.05;;;11.13;;
26530;SDS011;14201;43.188;24.160;2023-09-30T13:08:41;31.02;;;19.88;;
26530;SDS011;14201;43.188;24.160;2023-09-30T13:11:07;85.55;;;64.20;;
26530;SDS011;14201;43.188;24.160;2023-09-30T13:13:33;130.13;;;84.43;;
26530;SDS011;14201;43.188;24.160;2023-09-30T13:16:00;37.35;;;23.58;;
26530;SDS011;14201;43.188;24.160;2023-09-30T13:18:26;44.95;;;5.65;;
26530;SDS011;14201;43.188;24.160;2023-09-30T13:20:52;34.03;;;6.13;;
26530;SDS011;14201;43.188;24.160;2023-09-30T13:23:18;58.70;;;26.23;;
26530;SDS011;14201;43.188;24.160;2023-09-30T13:25:44;28.70;;;13.45;;
26530;SDS011;14201;43.188;24.160;2023-09-30T13:28:10;35.15;;;25.63;;
26530;SDS011;14201;43.188;24.160;2023-09-30T13:30:35;51.50;;;30.13;;
26530;SDS011;14201;43.188;24.160;2023-09-30T13:33:01;35.35;;;22.27;;
26530;SDS011;14201;43.188;24.160;2023-09-30T13:35:27;43.95;;;21.23;;
26530;SDS011;14201;43.188;24.160;2023-09-30T13:37:52;70.57;;;43.55;;
26530;SDS011;14201;43.188;24.160;2023-09-30T13:40:18;71.05;;;49.92;;
26530;SDS011;14201;43.188;24.160;2023-09-30T13:42:44;122.25;;;36.22;;
26530;SDS011;14201;43.188;24.160;2023-09-30T13:45:11;78.85;;;31.85;;
26530;SDS011;14201;43.188;24.160;2023-09-30T13:47:37;62.28;;;36.50;;
26530;SDS011;14201;43.188;24.160;2023-09-30T13:50:03;98.20;;;63.22;;
26530;SDS011;14201;43.188;24.160;2023-09-30T13:52:29;23.80;;;12.00;;
26530;SDS011;14201;43.188;24.160;2023-09-30T13:54:55;42.88;;;27.70;;
26530;SDS011;14201;43.188;24.160;2023-09-30T13:57:20;27.08;;;15.95;;
26530;SDS011;14201;43.188;24.160;2023-09-30T13:59:46;27.80;;;17.98;;
26530;SDS011;14201;43.188;24.160;2023-09-30T14:02:12;56.60;;;43.60;;
26530;SDS011;14201;43.188;24.160;2023-09-30T14:04:37;47.10;;;29.92;;
26530;SDS011;14201;43.188;24.160;2023-09-30T14:07:03;53.50;;;38.45;;
26530;SDS011;14201;43.188;24.160;2023-09-30T14:09:30;34.88;;;23.85;;
26530;SDS011;14201;43.188;24.160;2023-09-30T14:11:56;54.53;;;33.00;;
26530;SDS011;14201;43.188;24.160;2023-09-30T14:14:24;54.17;;;36.78;;
26530;SDS011;14201;43.188;24.160;2023-09-30T14:16:50;63.00;;;46.97;;
26530;SDS011;14201;43.188;24.160;2023-09-30T14:19:15;67.05;;;44.15;;
26530;SDS011;14201;43.188;24.160;2023-09-30T14:21:41;73.25;;;17.45;;
26530;SDS011;14201;43.188;24.160;2023-09-30T14:24:07;43.47;;;34.28;;
26530;SDS011;14201;43.188;24.160;2023-09-30T14:26:32;63.50;;;39.63;;
26530;SDS011;14201;43.188;24.160;2023-09-30T14:28:58;73.53;;;47.78;;
26530;SDS011;14201;43.188;24.160;2023-09-30T14:31:24;120.30;;;61.25;;
26530;SDS011;14201;43.188;24.160;2023-09-30T14:33:50;88.38;;;58.58;;
26530;SDS011;14201;43.188;24.160;2023-09-30T14:36:16;40.83;;;32.85;;
26530;SDS011;14201;43.188;24.160;2023-09-30T14:38:43;43.47;;;29.15;;
26530;SDS011;14201;43.188;24.160;2023-09-30T14:41:10;20.30;;;14.95;;
26530;SDS011;14201;43.188;24.160;2023-09-30T14:43:37;67.80;;;30.83;;
26530;SDS011;14201;43.188;24.160;2023-09-30T14:46:04;27.00;;;15.85;;
26530;SDS011;14201;43.188;24.160;2023-09-30T14:48:29;35.20;;;24.40;;
26530;SDS011;14201;43.188;24.160;2023-09-30T14:50:56;69.05;;;39.40;;
26530;SDS011;14201;43.188;24.160;2023-09-30T14:53:22;37.88;;;18.02;;
26530;SDS011;14201;43.188;24.160;2023-09-30T14:55:48;25.13;;;13.25;;
26530;SDS011;14201;43.188;24.160;2023-09-30T14:58:13;46.60;;;28.65;;
26530;SDS011;14201;43.188;24.160;2023-09-30T15:00:39;62.50;;;25.73;;
26530;SDS011;14201;43.188;24.160;2023-09-30T15:03:05;30.17;;;19.88;;
26530;SDS011;14201;43.188;24.160;2023-09-30T15:05:31;27.58;;;16.70;;
26530;SDS011;14201;43.188;24.160;2023-09-30T15:07:58;52.13;;;34.95;;
26530;SDS011;14201;43.188;24.160;2023-09-30T15:10:26;94.57;;;62.90;;
26530;SDS011;14201;43.188;24.160;2023-09-30T15:12:52;47.20;;;32.83;;
26530;SDS011;14201;43.188;24.160;2023-09-30T15:15:17;38.63;;;22.20;;
26530;SDS011;14201;43.188;24.160;2023-09-30T15:17:43;31.40;;;19.42;;
26530;SDS011;14201;43.188;24.160;2023-09-30T15:20:09;116.10;;;78.03;;
26530;SDS011;14201;43.188;24.160;2023-09-30T15:22:35;206.65;;;143.25;;
26530;SDS011;14201;43.188;24.160;2023-09-30T15:25:01;144.00;;;79.53;;
26530;SDS011;14201;43.188;24.160;2023-09-30T15:27:27;143.10;;;76.00;;
26530;SDS011;14201;43.188;24.160;2023-09-30T15:29:52;170.05;;;123.95;;
26530;SDS011;14201;43.188;24.160;2023-09-30T15:32:20;167.45;;;116.55;;
26530;SDS011;14201;43.188;24.160;2023-09-30T15:34:46;155.88;;;110.20;;
26530;SDS011;14201;43.188;24.160;2023-09-30T15:37:12;215.68;;;74.10;;
26530;SDS011;14201;43.188;24.160;2023-09-30T15:39:39;128.77;;;59.63;;
26530;SDS011;14201;43.188;24.160;2023-09-30T15:42:06;97.05;;;51.88;;
26530;SDS011;14201;43.188;24.160;2023-09-30T15:44:34;50.13;;;19.58;;
26530;SDS011;14201;43.188;24.160;2023-09-30T15:47:00;81.13;;;40.88;;
26530;SDS011;14201;43.188;24.160;2023-09-30T15:49:26;27.85;;;13.80;;
26530;SDS011;14201;43.188;24.160;2023-09-30T15:51:51;20.60;;;8.05;;
26530;SDS011;14201;43.188;24.160;2023-09-30T15:54:18;19.77;;;6.15;;
26530;SDS011;14201;43.188;24.160;2023-09-30T15:56:44;20.10;;;4.40;;
26530;SDS011;14201;43.188;24.160;2023-09-30T16:01:35;11.80;;;3.75;;
26530;SDS011;14201;43.188;24.160;2023-09-30T16:04:00;123.80;;;8.27;;
26530;SDS011;14201;43.188;24.160;2023-09-30T16:06:26;249.10;;;14.63;;
26530;SDS011;14201;43.188;24.160;2023-09-30T16:08:52;225.68;;;12.73;;
26530;SDS011;14201;43.188;24.160;2023-09-30T16:11:23;247.93;;;15.63;;
26530;SDS011;14201;43.188;24.160;2023-09-30T16:13:48;51.45;;;5.40;;
26530;SDS011;14201;43.188;24.160;2023-09-30T16:16:14;127.93;;;10.60;;
26530;SDS011;14201;43.188;24.160;2023-09-30T16:18:39;110.68;;;9.63;;
26530;SDS011;14201;43.188;24.160;2023-09-30T16:21:05;98.97;;;8.45;;
26530;SDS011;14201;43.188;24.160;2023-09-30T16:23:31;73.47;;;7.35;;
26530;SDS011;14201;43.188;24.160;2023-09-30T16:25:57;55.47;;;5.35;;
26530;SDS011;14201;43.188;24.160;2023-09-30T16:28:22;73.63;;;5.85;;
26530;SDS011;14201;43.188;24.160;2023-09-30T16:30:48;37.50;;;5.38;;
26530;SDS011;14201;43.188;24.160;2023-09-30T16:33:13;51.53;;;5.68;;
26530;SDS011;14201;43.188;24.160;2023-09-30T16:35:39;55.63;;;5.72;;
26530;SDS011;14201;43.188;24.160;2023-09-30T16:38:04;46.70;;;5.60;;
26530;SDS011;14201;43.188;24.160;2023-09-30T16:40:30;43.42;;;5.40;;
26530;SDS011;14201;43.188;24.160;2023-09-30T16:42:57;38.63;;;4.85;;
26530;SDS011;14201;43.188;24.160;2023-09-30T16:45:23;16.15;;;4.28;;
26530;SDS011;14201;43.188;24.160;2023-09-30T16:47:49;17.08;;;4.20;;
26530;SDS011;14201;43.188;24.160;2023-09-30T16:50:15;12.63;;;3.83;;
26530;SDS011;14201;43.188;24.160;2023-09-30T16:52:41;17.88;;;3.90;;
26530;SDS011;14201;43.188;24.160;2023-09-30T16:55:06;16.17;;;3.55;;
26530;SDS011;14201;43.188;24.160;2023-09-30T16:57:32;16.58;;;4.10;;
26530;SDS011;14201;43.188;24.160;2023-09-30T16:59:58;11.68;;;3.75;;
26530;SDS011;14201;43.188;24.160;2023-09-30T17:02:24;16.55;;;4.05;;
26530;SDS011;14201;43.188;24.160;2023-09-30T17:04:50;15.45;;;3.90;;
26530;SDS011;14201;43.188;24.160;2023-09-30T17:07:17;11.95;;;3.72;;
26530;SDS011;14201;43.188;24.160;2023-09-30T17:09:43;12.98;;;4.10;;
26530;SDS011;14201;43.188;24.160;2023-09-30T17:12:09;12.27;;;3.70;;
26530;SDS011;14201;43.188;24.160;2023-09-30T17:14:34;13.77;;;3.80;;
26530;SDS011;14201;43.188;24.160;2023-09-30T17:17:01;14.38;;;4.50;;
26530;SDS011;14201;43.188;24.160;2023-09-30T17:19:27;16.40;;;4.10;;
26530;SDS011;14201;43.188;24.160;2023-09-30T17:21:53;17.23;;;5.03;;
26530;SDS011;14201;43.188;24.160;2023-09-30T17:24:20;17.75;;;4.63;;
26530;SDS011;14201;43.188;24.160;2023-09-30T17:26:46;12.07;;;4.10;;
